createdAt,value
2023-03-15T00:01:17.181Z,0.80
2023-03-15T00:03:45.303Z,1.00
2023-03-15T00:06:13.331Z,1.00
2023-03-15T00:08:42.194Z,0.90
2023-03-15T00:11:10.049Z,0.90
2023-03-15T00:13:38.847Z,1.00
2023-03-15T00:16:07.069Z,1.10
2023-03-15T00:18:39.240Z,0.80
2023-03-15T00:21:07.028Z,0.80
2023-03-15T00:23:34.990Z,1.10
2023-03-15T00:26:02.859Z,0.80
2023-03-15T00:28:30.770Z,1.00
2023-03-15T00:31:05.862Z,0.80
2023-03-15T00:33:35.140Z,1.10
2023-03-15T00:36:05.168Z,1.00
2023-03-15T00:38:36.088Z,0.80
2023-03-15T00:41:07.765Z,0.90
2023-03-15T00:43:36.694Z,0.80
2023-03-15T00:46:04.816Z,0.90
2023-03-15T00:48:32.925Z,0.80
2023-03-15T00:51:04.353Z,0.90
2023-03-15T00:53:33.654Z,0.80
2023-03-15T00:56:10.160Z,0.90
2023-03-15T00:58:38.873Z,0.80
2023-03-15T01:01:10.515Z,1.10
2023-03-15T01:03:39.889Z,1.00
2023-03-15T01:06:18.008Z,0.90
2023-03-15T01:08:45.918Z,0.70
2023-03-15T01:11:16.098Z,0.80
2023-03-15T01:13:44.162Z,0.80
2023-03-15T01:16:12.543Z,0.70
2023-03-15T01:18:41.404Z,0.90
2023-03-15T01:21:10.098Z,1.10
2023-03-15T01:23:38.909Z,0.60
2023-03-15T01:26:07.397Z,0.90
2023-03-15T01:28:35.801Z,0.80
2023-03-15T01:31:04.235Z,0.80
2023-03-15T01:33:33.086Z,0.90
2023-03-15T01:36:02.098Z,0.80
2023-03-15T01:38:31.708Z,0.80
2023-03-15T01:40:59.635Z,1.10
2023-03-15T01:43:28.027Z,0.80
2023-03-15T01:45:56.952Z,0.80
2023-03-15T01:48:34.955Z,0.80
2023-03-15T01:51:04.662Z,0.60
2023-03-15T01:53:36.949Z,0.90
2023-03-15T01:56:04.972Z,0.70
2023-03-15T01:58:39.458Z,0.70
2023-03-15T02:01:07.788Z,0.70
2023-03-15T02:03:39.582Z,0.80
2023-03-15T02:06:08.359Z,0.90
2023-03-15T02:08:57.358Z,0.80
2023-03-15T02:11:25.973Z,0.80
2023-03-15T02:13:56.732Z,0.80
2023-03-15T02:16:24.780Z,0.80
2023-03-15T02:18:57.208Z,0.90
2023-03-15T02:21:58.848Z,1.40
2023-03-15T02:24:26.672Z,0.70
2023-03-15T02:26:58.560Z,0.60
2023-03-15T02:29:27.501Z,0.90
2023-03-15T02:31:57.392Z,1.00
2023-03-15T02:34:26.845Z,0.80
2023-03-15T02:36:55.715Z,0.70
2023-03-15T02:39:23.859Z,0.80
2023-03-15T02:41:52.733Z,0.70
2023-03-15T02:44:27.245Z,0.80
2023-03-15T02:46:55.678Z,1.00
2023-03-15T02:49:24.024Z,0.90
2023-03-15T02:51:52.275Z,1.00
2023-03-15T02:54:20.422Z,0.90
2023-03-15T02:56:54.844Z,0.90
2023-03-15T02:59:23.644Z,0.90
2023-03-15T03:01:51.420Z,0.90
2023-03-15T03:04:19.214Z,0.80
2023-03-15T03:06:47.455Z,0.90
2023-03-15T03:09:19.836Z,0.90
2023-03-15T03:11:47.719Z,0.90
2023-03-15T03:14:15.689Z,1.10
2023-03-15T03:16:43.648Z,1.20
2023-03-15T03:19:14.478Z,1.00
2023-03-15T03:21:45.997Z,1.00
2023-03-15T03:24:16.216Z,1.20
2023-03-15T03:26:46.228Z,1.10
2023-03-15T03:29:16.772Z,0.90
2023-03-15T03:31:45.505Z,0.80
2023-03-15T03:34:15.745Z,1.00
2023-03-15T03:36:43.864Z,0.80
2023-03-15T03:39:12.244Z,1.10
2023-03-15T03:41:40.518Z,0.80
2023-03-15T03:44:08.936Z,1.10
2023-03-15T03:46:37.790Z,0.80
2023-03-15T03:49:05.608Z,1.20
2023-03-15T03:51:35.161Z,1.00
2023-03-15T03:54:04.435Z,0.90
2023-03-15T03:59:14.326Z,1.20
2023-03-15T04:01:56.084Z,1.20
2023-03-15T04:04:29.948Z,1.20
2023-03-15T04:06:58.225Z,1.10
2023-03-15T04:09:38.288Z,1.00
2023-03-15T04:12:11.133Z,0.90
2023-03-15T04:14:42.224Z,1.00
2023-03-15T04:17:12.358Z,1.00
2023-03-15T04:19:41.988Z,1.10
2023-03-15T04:22:15.280Z,1.50
2023-03-15T04:25:02.014Z,1.10
2023-03-15T04:27:58.959Z,1.00
2023-03-15T04:30:58.957Z,1.00
2023-03-15T04:33:41.672Z,0.90
2023-03-15T04:36:28.509Z,0.90
2023-03-15T04:39:14.988Z,1.10
2023-03-15T04:41:55.178Z,1.00
2023-03-15T04:44:54.447Z,0.90
2023-03-15T04:47:44.215Z,1.00
2023-03-15T04:50:47.320Z,1.00
2023-03-15T04:53:32.233Z,1.00
2023-03-15T04:56:33.481Z,1.10
2023-03-15T04:59:27.923Z,1.40
2023-03-15T05:02:14.336Z,1.00
2023-03-15T05:05:08.219Z,1.30
2023-03-15T05:08:08.221Z,1.10
2023-03-15T05:10:48.365Z,1.20
2023-03-15T05:13:36.477Z,0.90
2023-03-15T05:16:27.036Z,1.10
2023-03-15T05:19:24.557Z,1.00
2023-03-15T05:22:26.020Z,0.90
2023-03-15T05:25:18.923Z,1.30
2023-03-15T05:28:18.366Z,1.40
2023-03-15T05:31:16.202Z,1.20
2023-03-15T05:34:04.398Z,1.10
2023-03-15T05:36:51.413Z,1.30
2023-03-15T05:39:48.988Z,1.50
2023-03-15T05:42:36.069Z,1.20
2023-03-15T05:45:38.660Z,1.40
2023-03-15T05:48:32.904Z,1.60
2023-03-15T05:51:27.400Z,1.30
2023-03-15T05:54:12.042Z,1.40
2023-03-15T05:57:00.492Z,1.50
2023-03-15T05:59:51.184Z,1.20
2023-03-15T06:02:45.241Z,1.10
2023-03-15T06:05:21.586Z,1.30
2023-03-15T06:07:50.067Z,1.40
2023-03-15T06:10:24.520Z,4.90
2023-03-15T06:12:53.324Z,2.10
2023-03-15T06:15:21.403Z,1.30
2023-03-15T06:17:54.533Z,1.70
2023-03-15T06:20:22.792Z,2.10
2023-03-15T06:22:50.951Z,1.30
2023-03-15T06:25:27.748Z,1.40
2023-03-15T06:27:55.905Z,1.80
2023-03-15T06:30:26.468Z,1.30
2023-03-15T06:32:56.709Z,1.30
2023-03-15T06:35:24.576Z,1.20
2023-03-15T06:37:55.069Z,1.70
2023-03-15T06:40:23.107Z,2.10
2023-03-15T06:42:51.116Z,1.90
2023-03-15T06:45:19.680Z,1.80
2023-03-15T06:47:47.988Z,1.80
2023-03-15T06:50:16.568Z,1.50
2023-03-15T06:52:44.440Z,1.10
2023-03-15T06:55:18.068Z,1.60
2023-03-15T06:57:46.487Z,1.30
2023-03-15T07:00:14.913Z,1.50
2023-03-15T07:02:43.015Z,1.30
2023-03-15T07:05:11.483Z,2.00
2023-03-15T07:07:40.896Z,1.10
2023-03-15T07:10:09.338Z,1.30
2023-03-15T07:12:37.727Z,1.30
2023-03-15T07:15:05.774Z,1.10
2023-03-15T07:17:35.449Z,1.20
2023-03-15T07:20:05.781Z,1.20
2023-03-15T07:22:35.021Z,1.30
2023-03-15T07:25:03.273Z,1.00
2023-03-15T07:27:31.321Z,1.30
2023-03-15T07:29:59.234Z,1.10
2023-03-15T07:32:27.163Z,1.00
2023-03-15T07:35:00.720Z,1.20
2023-03-15T07:37:29.208Z,1.10
2023-03-15T07:39:58.627Z,1.20
2023-03-15T07:42:27.181Z,1.50
2023-03-15T07:44:57.169Z,1.50
2023-03-15T07:47:25.403Z,2.20
2023-03-15T07:49:53.457Z,1.30
2023-03-15T07:52:21.531Z,1.20
2023-03-15T07:54:49.697Z,1.10
2023-03-15T07:57:17.523Z,1.00
2023-03-15T07:59:48.221Z,1.00
2023-03-15T08:02:16.645Z,1.00
2023-03-15T08:04:44.897Z,1.60
2023-03-15T08:07:12.949Z,1.20
2023-03-15T08:09:41.517Z,0.90
2023-03-15T08:12:09.566Z,1.00
2023-03-15T08:14:37.901Z,1.10
2023-03-15T08:17:13.265Z,1.40
2023-03-15T08:22:13.184Z,0.80
2023-03-15T08:24:41.361Z,1.30
2023-03-15T08:27:10.158Z,1.40
2023-03-15T08:29:38.795Z,1.10
2023-03-15T08:32:09.796Z,1.40
2023-03-15T08:34:37.762Z,1.50
2023-03-15T08:37:05.783Z,1.10
2023-03-15T08:39:36.368Z,0.90
2023-03-15T08:42:04.553Z,1.30
2023-03-15T08:44:36.361Z,1.20
2023-03-15T08:47:05.437Z,1.00
2023-03-15T08:49:33.792Z,1.20
2023-03-15T08:52:02.379Z,1.60
2023-03-15T08:54:31.710Z,1.60
2023-03-15T08:56:59.700Z,1.20
2023-03-15T08:59:32.349Z,1.20
2023-03-15T09:02:01.182Z,1.30
2023-03-15T09:04:31.252Z,1.50
2023-03-15T09:06:59.632Z,1.00
2023-03-15T09:09:28.203Z,1.20
2023-03-15T09:11:56.713Z,1.20
2023-03-15T09:14:24.684Z,1.20
2023-03-15T09:16:54.450Z,1.20
2023-03-15T09:19:23.090Z,1.20
2023-03-15T09:21:51.356Z,1.50
2023-03-15T09:24:19.133Z,1.50
2023-03-15T09:26:47.105Z,1.70
2023-03-15T09:29:17.976Z,1.90
2023-03-15T09:31:45.826Z,1.00
2023-03-15T09:34:13.680Z,1.00
2023-03-15T09:36:41.583Z,1.40
2023-03-15T09:39:09.365Z,1.10
2023-03-15T09:41:44.180Z,1.30
2023-03-15T09:44:11.998Z,1.20
2023-03-15T09:46:42.725Z,1.10
2023-03-15T09:49:13.622Z,1.50
2023-03-15T09:51:48.211Z,1.30
2023-03-15T09:54:29.430Z,1.30
2023-03-15T09:57:02.484Z,1.10
2023-03-15T09:59:34.985Z,1.40
2023-03-15T10:02:04.325Z,1.20
2023-03-15T10:04:40.466Z,1.30
2023-03-15T10:07:12.168Z,1.50
2023-03-15T10:09:40.091Z,1.40
2023-03-15T10:12:15.520Z,1.50
2023-03-15T10:14:52.919Z,1.20
2023-03-15T10:17:50.575Z,1.70
2023-03-15T10:20:22.037Z,1.00
2023-03-15T10:22:52.972Z,1.60
2023-03-15T10:25:30.907Z,1.20
2023-03-15T10:27:59.935Z,1.40
2023-03-15T10:30:31.842Z,1.30
2023-03-15T10:33:22.816Z,0.90
2023-03-15T10:35:52.506Z,1.00
2023-03-15T10:38:25.307Z,1.30
2023-03-15T10:40:55.008Z,1.10
2023-03-15T10:43:24.374Z,1.30
2023-03-15T10:45:59.242Z,1.20
2023-03-15T10:48:27.853Z,1.40
2023-03-15T10:50:59.238Z,1.20
2023-03-15T10:53:27.381Z,1.30
2023-03-15T10:56:02.242Z,1.00
2023-03-15T10:58:39.269Z,0.90
2023-03-15T11:01:08.260Z,1.30
2023-03-15T11:03:37.097Z,0.90
2023-03-15T11:06:18.340Z,1.20
2023-03-15T11:08:47.168Z,1.00
2023-03-15T11:11:15.350Z,0.90
2023-03-15T11:14:03.282Z,1.00
2023-03-15T11:16:36.306Z,0.90
2023-03-15T11:19:04.235Z,0.90
2023-03-15T11:21:33.735Z,1.10
2023-03-15T11:24:03.305Z,0.90
2023-03-15T11:26:35.418Z,0.90
2023-03-15T11:29:13.070Z,0.80
2023-03-15T11:31:41.384Z,0.90
2023-03-15T11:34:13.014Z,0.90
2023-03-15T11:36:43.836Z,0.80
2023-03-15T11:39:18.136Z,0.80
2023-03-15T11:41:59.955Z,0.90
2023-03-15T11:44:41.701Z,1.00
2023-03-15T11:47:14.209Z,0.80
2023-03-15T11:49:54.903Z,0.70
2023-03-15T11:52:23.494Z,1.10
2023-03-15T11:54:56.882Z,1.00
2023-03-15T11:57:40.527Z,1.30
2023-03-15T12:00:27.001Z,1.10
2023-03-15T12:02:58.864Z,1.40
2023-03-15T12:05:48.197Z,1.10
2023-03-15T12:08:17.106Z,1.10
2023-03-15T12:10:49.709Z,1.00
2023-03-15T12:13:22.997Z,1.00
2023-03-15T12:15:51.085Z,0.80
2023-03-15T12:18:26.091Z,1.00
2023-03-15T12:21:12.363Z,0.80
2023-03-15T12:23:41.156Z,1.00
2023-03-15T12:26:11.111Z,0.90
2023-03-15T12:28:40.529Z,0.90
2023-03-15T12:31:09.594Z,1.40
2023-03-15T12:33:44.103Z,0.90
2023-03-15T12:36:20.473Z,1.00
2023-03-15T12:39:20.869Z,1.10
2023-03-15T12:41:50.116Z,1.10
2023-03-15T12:44:22.081Z,1.20
2023-03-15T12:46:49.956Z,1.20
2023-03-15T12:49:18.431Z,1.60
2023-03-15T12:52:01.672Z,1.70
2023-03-15T12:54:49.008Z,1.50
2023-03-15T12:57:24.454Z,1.60
2023-03-15T12:59:54.748Z,2.20
2023-03-15T13:02:42.255Z,0.90
2023-03-15T13:05:14.731Z,0.90
2023-03-15T13:07:52.516Z,1.30
2023-03-15T13:10:33.183Z,1.10
2023-03-15T13:13:04.262Z,1.70
2023-03-15T13:15:34.396Z,1.90
2023-03-15T13:18:18.053Z,1.60
2023-03-15T13:20:48.625Z,1.30
2023-03-15T13:23:19.072Z,1.30
2023-03-15T13:25:50.201Z,1.00
2023-03-15T13:28:45.609Z,0.90
2023-03-15T13:31:19.626Z,1.40
2023-03-15T13:33:57.111Z,1.30
2023-03-15T13:36:26.042Z,0.90
2023-03-15T13:38:54.745Z,1.70
2023-03-15T13:41:27.450Z,1.10
2023-03-15T13:43:57.728Z,2.00
2023-03-15T13:46:26.890Z,1.70
2023-03-15T13:48:56.409Z,1.00
2023-03-15T13:51:24.189Z,0.80
2023-03-15T13:53:53.785Z,0.90
2023-03-15T13:56:28.372Z,1.90
2023-03-15T13:58:57.530Z,1.30
2023-03-15T14:01:25.926Z,2.80
2023-03-15T14:03:58.418Z,1.00
2023-03-15T14:06:26.356Z,1.10
2023-03-15T14:08:54.959Z,1.20
2023-03-15T14:11:25.722Z,2.60
2023-03-15T14:13:56.125Z,2.40
2023-03-15T14:16:33.835Z,1.70
2023-03-15T14:19:18.346Z,1.40
2023-03-15T14:21:49.011Z,1.00
2023-03-15T14:24:36.219Z,2.40
2023-03-15T14:27:20.782Z,1.30
2023-03-15T14:29:49.587Z,1.40
2023-03-15T14:32:28.736Z,3.80
2023-03-15T14:35:01.572Z,3.00
2023-03-15T14:37:40.995Z,3.40
2023-03-15T14:40:21.121Z,2.00
2023-03-15T14:42:49.895Z,3.10
2023-03-15T14:45:17.987Z,3.00
2023-03-15T14:48:08.462Z,3.70
2023-03-15T14:50:38.057Z,2.90
2023-03-15T14:53:07.478Z,3.10
2023-03-15T14:55:36.403Z,2.30
2023-03-15T14:58:05.266Z,2.10
2023-03-15T15:00:34.840Z,2.70
2023-03-15T15:03:02.936Z,2.10
2023-03-15T15:05:31.768Z,2.30
2023-03-15T15:08:27.682Z,2.80
2023-03-15T15:10:55.909Z,2.60
2023-03-15T15:13:26.642Z,3.30
2023-03-15T15:15:56.724Z,2.60
2023-03-15T15:18:25.809Z,2.20
2023-03-15T15:20:56.269Z,3.20
2023-03-15T15:23:28.458Z,3.40
2023-03-15T15:25:57.563Z,3.90
2023-03-15T15:28:34.561Z,2.60
2023-03-15T15:31:05.061Z,3.40
2023-03-15T15:33:35.097Z,3.40
2023-03-15T15:36:04.637Z,3.00
2023-03-15T15:38:38.894Z,2.60
2023-03-15T15:41:11.382Z,2.80
2023-03-15T15:43:40.802Z,2.50
2023-03-15T15:46:09.892Z,3.10
2023-03-15T15:48:38.866Z,2.30
2023-03-15T15:51:20.711Z,2.80
2023-03-15T15:53:49.742Z,3.00
2023-03-15T15:56:18.403Z,8.40
2023-03-15T15:58:46.962Z,107.80
2023-03-15T16:01:15.379Z,104.50
2023-03-15T16:03:43.869Z,15.30
2023-03-15T16:06:18.531Z,32.20
2023-03-15T16:08:46.892Z,8.90
2023-03-15T16:11:16.343Z,5.30
2023-03-15T16:16:30.128Z,3.80
2023-03-15T16:18:58.005Z,3.90
2023-03-15T16:21:33.539Z,3.80
2023-03-15T16:24:20.107Z,3.50
2023-03-15T16:26:48.545Z,2.80
2023-03-15T16:29:20.050Z,3.50
2023-03-15T16:31:47.962Z,3.80
2023-03-15T16:34:16.611Z,3.30
2023-03-15T16:36:47.136Z,2.90
2023-03-15T16:39:17.015Z,3.50
2023-03-15T16:41:48.831Z,2.90
2023-03-15T16:44:17.924Z,3.60
2023-03-15T16:46:45.876Z,3.10
2023-03-15T16:49:15.793Z,3.40
2023-03-15T16:51:48.081Z,2.90
2023-03-15T16:54:27.369Z,3.70
2023-03-15T16:57:02.585Z,4.50
2023-03-15T16:59:30.491Z,4.70
2023-03-15T17:01:58.898Z,4.90
2023-03-15T17:04:27.111Z,4.40
2023-03-15T17:06:55.175Z,4.60
2023-03-15T17:09:23.226Z,5.10
2023-03-15T17:11:52.154Z,5.80
2023-03-15T17:14:24.324Z,5.20
2023-03-15T17:16:52.376Z,5.80
2023-03-15T17:19:20.293Z,5.40
2023-03-15T17:21:49.277Z,7.00
2023-03-15T17:24:17.209Z,5.80
2023-03-15T17:26:47.939Z,5.60
2023-03-15T17:29:15.878Z,5.30
2023-03-15T17:31:44.782Z,5.70
2023-03-15T17:34:13.245Z,6.60
2023-03-15T17:36:41.227Z,6.30
2023-03-15T17:39:14.362Z,6.50
2023-03-15T17:41:51.186Z,6.10
2023-03-15T17:44:18.939Z,7.60
2023-03-15T17:46:48.095Z,5.30
2023-03-15T17:49:16.464Z,7.10
2023-03-15T17:51:47.688Z,11.00
2023-03-15T17:54:17.836Z,13.30
2023-03-15T17:56:45.926Z,11.50
2023-03-15T17:59:13.719Z,10.10
2023-03-15T18:01:45.633Z,8.30
2023-03-15T18:04:20.357Z,8.70
2023-03-15T18:06:50.895Z,8.00
2023-03-15T18:09:23.779Z,7.80
2023-03-15T18:11:51.666Z,8.90
2023-03-15T18:14:19.524Z,8.40
2023-03-15T18:16:49.802Z,7.80
2023-03-15T18:19:18.130Z,8.80
2023-03-15T18:21:46.000Z,7.50
2023-03-15T18:24:16.071Z,7.70
2023-03-15T18:26:44.172Z,7.50
2023-03-15T18:29:12.183Z,8.20
2023-03-15T18:31:40.600Z,7.80
2023-03-15T18:34:12.228Z,7.40
2023-03-15T18:36:41.962Z,8.70
2023-03-15T18:39:10.258Z,6.90
2023-03-15T18:41:38.090Z,6.70
2023-03-15T18:44:05.928Z,7.40
2023-03-15T18:46:34.899Z,7.90
2023-03-15T18:49:02.773Z,6.90
2023-03-15T18:51:30.845Z,7.40
2023-03-15T18:53:58.675Z,7.10
2023-03-15T18:56:27.944Z,8.10
2023-03-15T18:58:55.793Z,6.60
2023-03-15T19:01:24.746Z,7.50
2023-03-15T19:03:53.007Z,6.80
2023-03-15T19:06:21.031Z,6.00
2023-03-15T19:08:53.523Z,6.60
2023-03-15T19:11:21.551Z,5.70
2023-03-15T19:13:55.288Z,6.60
2023-03-15T19:16:24.170Z,6.40
2023-03-15T19:18:52.206Z,6.70
2023-03-15T19:21:27.605Z,6.10
2023-03-15T19:23:57.158Z,7.30
2023-03-15T19:26:26.060Z,6.90
2023-03-15T19:28:56.503Z,6.20
2023-03-15T19:31:24.605Z,6.50
2023-03-15T19:33:54.862Z,6.00
2023-03-15T19:36:22.978Z,5.60
2023-03-15T19:38:50.863Z,7.10
2023-03-15T19:41:19.027Z,6.30
2023-03-15T19:43:47.104Z,6.60
2023-03-15T19:46:17.524Z,7.20
2023-03-15T19:48:45.393Z,5.50
2023-03-15T19:51:13.379Z,5.40
2023-03-15T19:53:42.066Z,6.40
2023-03-15T19:56:10.247Z,5.60
2023-03-15T19:58:41.355Z,4.80
2023-03-15T20:01:09.151Z,5.90
2023-03-15T20:03:37.080Z,5.10
2023-03-15T20:06:08.982Z,4.60
2023-03-15T20:08:36.972Z,5.10
2023-03-15T20:11:09.770Z,6.00
2023-03-15T20:13:39.683Z,5.10
2023-03-15T20:16:07.919Z,6.00
2023-03-15T20:18:37.564Z,4.90
2023-03-15T20:21:05.508Z,5.60
2023-03-15T20:23:34.907Z,5.30
2023-03-15T20:26:03.730Z,6.30
2023-03-15T20:28:32.563Z,5.20
2023-03-15T20:31:00.585Z,5.30
2023-03-15T20:33:31.250Z,6.30
2023-03-15T20:35:59.126Z,5.40
2023-03-15T20:38:27.413Z,6.80
2023-03-15T20:40:55.697Z,6.40
2023-03-15T20:43:23.688Z,5.80
2023-03-15T20:45:55.877Z,5.70
2023-03-15T20:48:24.854Z,5.90
2023-03-15T20:50:52.703Z,6.00
2023-03-15T20:53:21.058Z,5.40
2023-03-15T20:55:49.117Z,6.60
2023-03-15T20:58:17.337Z,5.70
2023-03-15T21:00:45.596Z,5.30
2023-03-15T21:03:16.839Z,5.90
2023-03-15T21:05:45.406Z,5.50
2023-03-15T21:10:48.672Z,5.40
2023-03-15T21:13:16.633Z,5.80
2023-03-15T21:15:46.395Z,5.50
2023-03-15T21:18:15.586Z,4.70
2023-03-15T21:20:43.654Z,4.70
2023-03-15T21:23:13.136Z,5.10
2023-03-15T21:25:41.877Z,5.80
2023-03-15T21:28:15.012Z,5.20
2023-03-15T21:30:43.835Z,6.10
2023-03-15T21:33:11.807Z,5.80
2023-03-15T21:35:39.707Z,5.80
2023-03-15T21:38:07.663Z,6.00
2023-03-15T21:40:35.597Z,5.10
2023-03-15T21:43:03.342Z,5.10
2023-03-15T21:45:31.425Z,5.50
2023-03-15T21:48:06.365Z,5.10
2023-03-15T21:50:36.587Z,6.20
2023-03-15T21:53:04.564Z,5.80
2023-03-15T21:55:35.489Z,5.60
2023-03-15T21:58:04.862Z,6.40
2023-03-15T22:00:34.004Z,5.90
2023-03-15T22:03:02.085Z,6.10
2023-03-15T22:05:35.152Z,6.00
2023-03-15T22:08:03.375Z,5.30
2023-03-15T22:10:31.255Z,6.20
2023-03-15T22:12:59.554Z,5.60
2023-03-15T22:15:28.549Z,5.00
2023-03-15T22:17:56.353Z,5.30
2023-03-15T22:20:25.065Z,5.80
2023-03-15T22:22:53.147Z,5.60
2023-03-15T22:25:20.895Z,5.80
2023-03-15T22:27:48.699Z,6.30
2023-03-15T22:30:17.926Z,8.70
2023-03-15T22:32:50.328Z,17.80
2023-03-15T22:35:18.228Z,11.10
2023-03-15T22:37:46.078Z,15.90
2023-03-15T22:40:16.915Z,17.10
2023-03-15T22:42:46.868Z,12.50
2023-03-15T22:45:17.635Z,14.70
2023-03-15T22:47:46.483Z,14.10
2023-03-15T22:50:14.564Z,11.90
2023-03-15T22:52:42.712Z,12.10
2023-03-15T22:55:10.854Z,9.40
2023-03-15T22:57:42.283Z,7.80
2023-03-15T23:00:13.878Z,7.30
2023-03-15T23:02:42.634Z,7.60
2023-03-15T23:05:11.778Z,7.40
2023-03-15T23:07:39.845Z,7.30
2023-03-15T23:10:07.866Z,6.30
2023-03-15T23:12:38.208Z,6.80
2023-03-15T23:15:06.542Z,6.20
2023-03-15T23:17:35.082Z,6.20
2023-03-15T23:20:04.088Z,5.50
2023-03-15T23:22:37.683Z,5.50
2023-03-15T23:25:05.666Z,5.30
2023-03-15T23:27:33.493Z,6.20
2023-03-15T23:30:04.542Z,5.50
2023-03-15T23:32:32.586Z,5.20
2023-03-15T23:35:03.438Z,4.70
2023-03-15T23:37:32.894Z,4.60
2023-03-15T23:40:00.684Z,5.20
2023-03-15T23:42:28.645Z,5.00
2023-03-15T23:44:56.722Z,4.60
2023-03-15T23:47:28.957Z,5.40
2023-03-15T23:49:57.074Z,4.70
2023-03-15T23:52:25.894Z,5.40
2023-03-15T23:54:53.974Z,5.90
2023-03-15T23:57:21.884Z,4.90
2023-03-15T23:59:53.750Z,5.90
